ADDS METAR Data INFO
IDs: Format: Raw Decoded Include TAF

Data at: 0248 UTC 21 Oct 2017

KGPH 210235Z AUTO 15006KT 10SM CLR 18/12 A2987 RMK AO2
KGPH 210215Z AUTO 15004KT 10SM CLR 18/12 A2987 RMK AO2
KGPH 210155Z AUTO 14005KT 10SM CLR 18/12 A2988 RMK AO2
KGPH 210135Z AUTO 14006KT 10SM CLR 18/12 A2988 RMK AO2
KGPH 210115Z AUTO 14006KT 10SM CLR 19/13 A2988 RMK AO2
KGPH 210055Z AUTO 14006KT 10SM CLR 20/13 A2988 RMK AO2
KGPH 210035Z AUTO 14006KT 10SM CLR 20/13 A2988 RMK AO2
KGPH 210015Z AUTO 15006KT 10SM CLR 20/13 A2987 RMK AO2
KGPH 202355Z AUTO 15007KT 10SM CLR 20/13 A2987 RMK AO2
KGPH 202335Z AUTO 15008KT 10SM CLR 21/13 A2988 RMK AO2
KGPH 202315Z AUTO 16008KT 10SM CLR 21/13 A2989 RMK AO2
KGPH 202255Z AUTO 16008G17KT 10SM CLR 22/13 A2989 RMK AO2
KGPH 202235Z AUTO 16012G19KT 10SM CLR 22/13 A2990 RMK AO2
KGPH 202135Z AUTO 17010G16KT 130V190 10SM CLR 22/13 A2992 RMK AO2
KGPH 202115Z AUTO 16013G19KT 10SM CLR 22/13 A2992 RMK AO2
KGPH 202055Z AUTO 17013G21KT 10SM CLR 22/13 A2992 RMK AO2
KGPH 202035Z AUTO 15011G16KT 10SM CLR 22/13 A2993 RMK AO2
KGPH 202015Z AUTO 17013G18KT 10SM CLR 22/13 A2994 RMK AO2
KGPH 201955Z AUTO 18008KT 10SM CLR 21/13 A2995 RMK AO2
KGPH 201935Z AUTO 17007KT 10SM CLR 21/13 A2996 RMK AO2
KGPH 201915Z AUTO 18008G14KT 10SM CLR 21/12 A2997 RMK AO2
KGPH 201855Z AUTO 17008KT 10SM CLR 21/12 A2998 RMK AO2
KGPH 201835Z AUTO 17008KT 10SM CLR 21/12 A2999 RMK AO2
KGPH 201815Z AUTO 17011G16KT 10SM CLR 21/12 A3001 RMK AO2
KGPH 201755Z AUTO 18010G18KT 150V210 10SM CLR 21/12 A3003 RMK AO2
KGPH 201735Z AUTO 18010G17KT 10SM CLR 21/12 A3003 RMK AO2
KGPH 201715Z AUTO 19011G16KT 10SM 21/12 A3005 RMK AO2
KGPH 201655Z AUTO 17010KT 10SM CLR 21/12 A3005 RMK AO2
KGPH 201635Z AUTO 20010G15KT 10SM CLR 20/12 A3006 RMK AO2
KGPH 201615Z AUTO 18010G14KT 10SM CLR 20/12 A3006 RMK AO2
KGPH 201555Z AUTO 18006KT 10SM CLR 18/12 A3007 RMK AO2
KGPH 201535Z AUTO 19007KT 10SM CLR 18/12 A3008 RMK AO2
KGPH 201515Z AUTO 17003KT 10SM CLR 16/11 A3009 RMK AO2
KGPH 201455Z AUTO 17003KT 10SM CLR 15/11 A3009 RMK AO2
KGPH 201435Z AUTO 15004KT 10SM CLR 13/10 A3010 RMK AO2
KGPH 201415Z AUTO 15005KT 10SM CLR 13/10 A3009 RMK AO2
KGPH 201355Z AUTO 14004KT 10SM 12/11 A3009 RMK AO2
KGPH 201335Z AUTO 14004KT 10SM 11/10 A3009 RMK AO2
KGPH 201315Z AUTO 14003KT 10SM CLR 11/10 A3009 RMK AO2
KGPH 201255Z AUTO 13003KT 10SM CLR 11/10 A3009 RMK AO2
KGPH 201235Z AUTO 13004KT 10SM CLR 11/10 A3009 RMK AO2
KGPH 201215Z AUTO 13004KT 10SM CLR 11/10 A3009 RMK AO2
KGPH 201155Z AUTO 13004KT 10SM CLR 11/10 A3009 RMK AO2
KGPH 201135Z AUTO 13005KT 10SM CLR 11/10 A3009 RMK AO2
KGPH 201115Z AUTO 14004KT 10SM CLR 11/10 A3010 RMK AO2
KGPH 201055Z AUTO 13003KT 10SM CLR 11/10 A3009 RMK AO2
KGPH 201035Z AUTO 00000KT 10SM CLR 12/10 A3009 RMK AO2
KGPH 201015Z AUTO 14004KT 10SM CLR 12/10 A3009 RMK AO2
KGPH 200955Z AUTO 13004KT 10SM CLR 12/10 A3008 RMK AO2
KGPH 200915Z AUTO 13005KT 10SM CLR 13/10 A3008 RMK AO2
KGPH 200855Z AUTO 14005KT 10SM CLR 13/10 A3009 RMK AO2
KGPH 200835Z AUTO 15005KT 10SM CLR 13/11 A3009 RMK AO2
KGPH 200815Z AUTO 16004KT 10SM CLR 13/11 A3009 RMK AO2
KGPH 200755Z AUTO 15004KT 10SM CLR 12/11 A3009 RMK AO2
KGPH 200735Z AUTO 15003KT 10SM CLR 11/10 A3009 RMK AO2
KGPH 200715Z AUTO 00000KT 10SM CLR 11/10 A3009 RMK AO2
KGPH 200655Z AUTO 00000KT 10SM CLR 10/10 A3009 RMK AO2
KGPH 200635Z AUTO 00000KT 10SM 11/10 A3009 RMK AO2
KGPH 200615Z AUTO 00000KT 10SM 11/11 A3008 RMK AO2
KGPH 200555Z AUTO 00000KT 10SM CLR 12/11 A3008 RMK AO2
KGPH 200535Z AUTO 13003KT 10SM CLR 12/11 A3008 RMK AO2
KGPH 200515Z AUTO 13003KT 10SM CLR 12/11 A3008 RMK AO2
KGPH 200455Z AUTO 00000KT 10SM 14/11 A3008 RMK AO2
KGPH 200435Z AUTO 14004KT 10SM 16/11 A3008 RMK AO2
KGPH 200415Z AUTO 14004KT 10SM 15/11 A3008 RMK AO2
KGPH 200355Z AUTO 15004KT 10SM 16/11 A3008 RMK AO2
KGPH 200335Z AUTO 13004KT 10SM CLR 16/11 A3008 RMK AO2
KGPH 200315Z AUTO 14003KT 10SM CLR 16/11 A3008 RMK AO2
KGPH 200255Z AUTO 00000KT 10SM CLR 16/11 A3008 RMK AO2
KGPH 200235Z AUTO 00000KT 10SM CLR 16/11 A3007 RMK AO2
KGPH 200215Z AUTO 00000KT 10SM 18/11 A3007 RMK AO2
KGPH 200155Z AUTO 14003KT 10SM CLR 19/11 A3007 RMK AO2
KGPH 200135Z AUTO 15003KT 10SM CLR 20/11 A3007 RMK AO2
KGPH 200115Z AUTO 00000KT 10SM CLR 20/11 A3007 RMK AO2
KGPH 200055Z AUTO 15004KT 10SM CLR 21/10 A3007 RMK AO2
KGPH 200035Z AUTO 14004KT 10SM CLR 21/10 A3007 RMK AO2
KGPH 200015Z AUTO 15004KT 10SM CLR 22/10 A3006 RMK AO2
KGPH 192355Z AUTO 16003KT 10SM CLR 22/10 A3006 RMK AO2
KGPH 192335Z AUTO 17003KT 10SM CLR 23/10 A3006 RMK AO2
KGPH 192315Z AUTO 17005KT 10SM CLR 24/10 A3006 RMK AO2
KGPH 192255Z AUTO 18004KT 10SM CLR 25/10 A3006 RMK AO2
KGPH 192235Z AUTO 17006KT 10SM CLR 26/10 A3006 RMK AO2
KGPH 192215Z AUTO 17006KT 10SM CLR 26/10 A3006 RMK AO2
KGPH 192155Z AUTO 18007KT 10SM CLR 26/10 A3006 RMK AO2
KGPH 192135Z AUTO 18008KT 10SM CLR 27/08 A3006 RMK AO2
KGPH 192115Z AUTO 18007KT 10SM CLR 27/08 A3006 RMK AO2
KGPH 192055Z AUTO 19006KT 10SM CLR 26/08 A3006 RMK AO2
KGPH 192035Z AUTO 19007KT 10SM CLR 26/08 A3007 RMK AO2
KGPH 192015Z AUTO 16008KT 10SM CLR 26/08 A3007 RMK AO2
KGPH 191955Z AUTO 16008KT 10SM CLR 26/08 A3007 RMK AO2
KGPH 191935Z AUTO 18007KT 10SM CLR 25/08 A3008 RMK AO2
KGPH 191915Z AUTO 17005KT 10SM CLR 25/08 A3008 RMK AO2
KGPH 191855Z AUTO 18007KT 10SM CLR 25/08 A3009 RMK AO2
KGPH 191835Z AUTO 20005KT 10SM CLR 24/08 A3010 RMK AO2
KGPH 191815Z AUTO 18003KT 10SM CLR 23/08 A3011 RMK AO2
KGPH 191755Z AUTO 21006KT 10SM CLR 23/08 A3012 RMK AO2
KGPH 191735Z AUTO 22005KT 10SM CLR 22/09 A3012 RMK AO2
KGPH 191715Z AUTO 22006KT 10SM CLR 21/08 A3012 RMK AO2
KGPH 191655Z AUTO 21005KT 10SM CLR 21/09 A3013 RMK AO2
KGPH 191635Z AUTO 20007KT 10SM CLR 20/09 A3012 RMK AO2
KGPH 191615Z AUTO 19004KT 10SM CLR 19/09 A3012 RMK AO2
KGPH 191555Z AUTO 19004KT 10SM CLR 18/09 A3013 RMK AO2
KGPH 191535Z AUTO 19003KT 10SM CLR 17/09 A3013 RMK AO2
KGPH 191515Z AUTO 18004KT 10SM CLR 17/09 A3013 RMK AO2
KGPH 191455Z AUTO 00000KT 10SM CLR 15/11 A3013 RMK AO2